Time;durP1;ratioP1;P1;durP2;ratioP2;P2;SDS_P1;SDS_P2;PMS_P1;PMS_P2;Temp;Humidity;BMP_temperature;BMP_pressure;BME280_temperature;BME280_humidity;BME280_pressure;Samples;Min_cycle;Max_cycle;Signal;HPM_P1;HPM_P2
2022/12/19 00:01:17;;;;;;;42.92;26.00;;;0.40;93.90;;;;;;5053754;28;20408;-77
2022/12/19 00:03:52;;;;;;;44.35;25.77;;;0.40;93.70;;;;;;5053488;28;20040;-74
2022/12/19 00:06:19;;;;;;;42.75;26.00;;;0.40;93.40;;;;;;5036817;28;20041;-73
2022/12/19 00:08:47;;;;;;;48.58;26.75;;;0.40;93.90;;;;;;5053126;28;20120;-72
2022/12/19 00:11:14;;;;;;;45.28;26.80;;;0.40;93.80;;;;;;5053312;28;20048;-74
2022/12/19 00:13:40;;;;;;;48.17;29.05;;;0.50;94.40;;;;;;5053145;28;20493;-76
2022/12/19 00:16:20;;;;;;;45.63;28.17;;;0.40;94.20;;;;;;5053204;28;20076;-72
2022/12/19 00:18:47;;;;;;;44.72;27.35;;;0.40;94.10;;;;;;5053146;28;20036;-77
2022/12/19 00:21:15;;;;;;;49.75;29.60;;;0.50;94.30;;;;;;5053080;28;20071;-75
2022/12/19 00:23:41;;;;;;;51.55;28.52;;;0.50;94.60;;;;;;5053078;28;20037;-77
2022/12/19 00:26:09;;;;;;;52.58;30.15;;;0.50;95.00;;;;;;5020434;28;20495;-77
2022/12/19 00:28:34;;;;;;;46.47;26.55;;;0.50;94.80;;;;;;5053313;28;20045;-73
2022/12/19 00:31:01;;;;;;;46.40;29.10;;;0.60;94.90;;;;;;5053144;28;20543;-77
2022/12/19 00:33:27;;;;;;;47.17;26.15;;;0.60;94.80;;;;;;5052779;28;20102;-75
2022/12/19 00:35:57;;;;;;;47.42;28.65;;;0.60;94.40;;;;;;5053024;28;20128;-74
2022/12/19 00:38:23;;;;;;;48.95;27.90;;;0.60;94.70;;;;;;5052783;28;20037;-77
2022/12/19 00:40:48;;;;;;;50.22;28.63;;;0.60;94.80;;;;;;5052717;28;20044;-74
2022/12/19 00:43:14;;;;;;;46.15;27.33;;;0.60;94.70;;;;;;5052904;28;20044;-74
2022/12/19 00:45:40;;;;;;;49.90;30.13;;;0.60;94.80;;;;;;5019659;28;20095;-77
2022/12/19 00:48:05;;;;;;;50.30;27.83;;;0.70;95.10;;;;;;5035285;28;20139;-76
2022/12/19 00:50:31;;;;;;;50.92;30.23;;;0.70;94.80;;;;;;5052540;28;20040;-78
2022/12/19 00:52:57;;;;;;;47.33;27.27;;;0.70;94.50;;;;;;5019406;28;20037;-74
2022/12/19 00:55:23;;;;;;;49.53;28.75;;;0.70;94.80;;;;;;5035869;28;20136;-75
2022/12/19 00:57:49;;;;;;;47.15;26.85;;;0.70;94.80;;;;;;5036109;28;20040;-75
2022/12/19 01:00:16;;;;;;;51.17;28.05;;;0.70;94.90;;;;;;5052325;28;20485;-76
2022/12/19 01:02:42;;;;;;;49.92;29.52;;;0.70;94.80;;;;;;5035852;28;20041;-77
2022/12/19 01:05:08;;;;;;;51.33;29.63;;;0.70;94.80;;;;;;5052217;28;20037;-75
2022/12/19 01:07:34;;;;;;;51.45;29.33;;;0.70;94.80;;;;;;5052392;28;20480;-79
2022/12/19 01:09:59;;;;;;;52.78;29.02;;;0.70;94.90;;;;;;5052585;28;20128;-76
2022/12/19 01:12:44;;;;;;;54.22;30.30;;;0.70;95.00;;;;;;5035904;28;20455;-77
2022/12/19 01:15:12;;;;;;;49.17;27.47;;;0.70;94.70;;;;;;5052054;28;20103;-73
2022/12/19 01:17:38;;;;;;;51.13;30.75;;;0.70;95.00;;;;;;5035812;28;20443;-77
2022/12/19 01:20:04;;;;;;;47.15;28.83;;;0.80;95.20;;;;;;5052233;28;20037;-78
2022/12/19 01:22:29;;;;;;;52.00;28.60;;;0.80;95.30;;;;;;5019087;28;20041;-75
2022/12/19 01:24:55;;;;;;;57.85;31.27;;;0.80;95.10;;;;;;5051955;28;20041;-79
2022/12/19 01:27:21;;;;;;;50.67;29.58;;;0.80;95.30;;;;;;5052026;28;20041;-78
2022/12/19 01:29:46;;;;;;;56.03;31.88;;;0.80;95.40;;;;;;5051864;28;20448;-77
2022/12/19 01:32:12;;;;;;;50.85;29.13;;;0.80;94.80;;;;;;5035257;28;20128;-76
2022/12/19 01:34:38;;;;;;;54.75;29.60;;;0.80;95.30;;;;;;5018732;28;20041;-82
2022/12/19 01:37:03;;;;;;;53.30;26.23;;;0.80;95.20;;;;;;5035571;28;20086;-75
2022/12/19 01:39:29;;;;;;;53.05;30.15;;;0.90;95.20;;;;;;5052082;28;20044;-76
2022/12/19 01:41:56;;;;;;;55.58;29.45;;;0.90;95.20;;;;;;5051747;28;20409;-78
2022/12/19 01:44:23;;;;;;;50.80;29.15;;;0.90;95.10;;;;;;5051981;28;20393;-75
2022/12/19 01:46:56;;;;;;;54.92;30.27;;;0.90;95.20;;;;;;5035455;28;20033;-77
2022/12/19 01:49:30;;;;;;;56.83;29.63;;;0.90;95.10;;;;;;5051719;28;20076;-77
2022/12/19 01:52:03;;;;;;;55.47;29.13;;;0.90;95.10;;;;;;5051608;28;20513;-74
2022/12/19 01:54:35;;;;;;;51.70;28.90;;;0.90;95.50;;;;;;5051850;28;20397;-78
2022/12/19 01:57:05;;;;;;;54.90;30.95;;;0.90;95.60;;;;;;5051619;28;20036;-79
2022/12/19 01:59:48;;;;;;;56.33;30.05;;;0.90;95.50;;;;;;5055117;28;20051;-76
2022/12/19 02:02:41;;;;;;;57.70;31.60;;;1.00;95.60;;;;;;5058214;28;20048;-72
2022/12/19 02:05:07;;;;;;;54.70;29.45;;;1.00;95.80;;;;;;5058156;28;20051;-76
2022/12/19 02:07:35;;;;;;;58.78;32.25;;;1.00;95.60;;;;;;5024955;28;20382;-77
2022/12/19 02:10:01;;;;;;;61.20;32.85;;;1.00;95.80;;;;;;5058436;28;20053;-77
2022/12/19 02:12:32;;;;;;;66.65;33.53;;;1.00;95.60;;;;;;5058042;28;20076;-76
2022/12/19 02:15:00;;;;;;;63.50;32.38;;;1.00;95.50;;;;;;5057990;28;20052;-75
2022/12/19 02:17:56;;;;;;;56.50;31.88;;;1.00;95.80;;;;;;5041372;28;20037;-76
2022/12/19 02:21:00;;;;;;;64.00;31.83;;;1.00;95.60;;;;;;5058046;28;20033;-76
2022/12/19 02:24:13;;;;;;;62.85;34.03;;;1.00;96.00;;;;;;5058331;28;20072;-75
2022/12/19 02:27:22;;;;;;;71.65;35.55;;;1.10;96.20;;;;;;5041679;28;20048;-80
2022/12/19 02:30:02;;;;;;;62.47;30.83;;;1.10;96.30;;;;;;5057775;28;20480;-76
2022/12/19 02:32:48;;;;;;;68.45;35.53;;;1.10;96.60;;;;;;5058179;28;20049;-76
2022/12/19 02:35:40;;;;;;;64.65;34.83;;;1.10;96.60;;;;;;5058137;28;20049;-75
2022/12/19 02:38:17;;;;;;;68.40;33.72;;;1.20;96.50;;;;;;5041311;28;20094;-77
2022/12/19 02:40:54;;;;;;;76.10;35.33;;;1.20;96.40;;;;;;5058120;28;20386;-78
2022/12/19 02:43:22;;;;;;;68.22;33.50;;;1.20;96.70;;;;;;5057842;28;20079;-78
2022/12/19 02:45:49;;;;;;;68.35;34.00;;;1.20;97.00;;;;;;5041483;28;20453;-76
2022/12/19 02:48:15;;;;;;;69.97;34.72;;;1.20;97.00;;;;;;5041126;28;20051;-77
2022/12/19 02:50:43;;;;;;;64.53;33.05;;;1.20;97.20;;;;;;5041128;28;20045;-75
2022/12/19 02:53:11;;;;;;;63.30;31.75;;;1.20;97.20;;;;;;5057649;28;20083;-75
2022/12/19 02:56:04;;;;;;;65.93;33.72;;;1.20;96.90;;;;;;5041166;28;20390;-77
2022/12/19 02:58:39;;;;;;;65.47;34.90;;;1.30;97.50;;;;;;5057723;28;20520;-78
2022/12/19 03:01:34;;;;;;;63.28;33.78;;;1.30;97.30;;;;;;5057648;28;20033;-76
2022/12/19 03:04:29;;;;;;;65.20;33.42;;;1.30;97.10;;;;;;5057566;28;20040;-76
2022/12/19 03:07:20;;;;;;;68.10;32.83;;;1.30;97.50;;;;;;5057486;28;20509;-74
2022/12/19 03:09:55;;;;;;;55.10;30.67;;;1.30;97.10;;;;;;5057975;28;20048;-76
2022/12/19 03:12:31;;;;;;;66.05;33.20;;;1.40;97.60;;;;;;5053583;28;20079;-79
2022/12/19 03:14:58;;;;;;;70.85;33.97;;;1.30;97.30;;;;;;5037966;28;20507;-76
2022/12/19 03:17:25;;;;;;;63.53;32.67;;;1.40;97.50;;;;;;5054682;28;20151;-74
2022/12/19 03:19:50;;;;;;;70.13;33.67;;;1.40;97.60;;;;;;5054343;28;20044;-79
2022/12/19 03:22:16;;;;;;;72.53;33.53;;;1.30;97.60;;;;;;5054425;28;20060;-79
2022/12/19 03:24:42;;;;;;;63.10;32.08;;;1.40;97.60;;;;;;5037888;28;20033;-75
2022/12/19 03:27:13;;;;;;;66.63;36.35;;;1.40;97.80;;;;;;5037874;28;20044;-79
2022/12/19 03:29:49;;;;;;;62.97;32.40;;;1.40;97.70;;;;;;5054501;28;20385;-77
2022/12/19 03:32:16;;;;;;;69.03;35.72;;;1.50;97.40;;;;;;5037701;28;20123;-75
2022/12/19 03:34:59;;;;;;;69.45;35.25;;;1.50;97.60;;;;;;5037285;28;20047;-78
2022/12/19 03:37:30;;;;;;;62.60;33.78;;;1.50;97.40;;;;;;5037495;28;20124;-76
2022/12/19 03:40:03;;;;;;;75.47;35.60;;;1.50;97.50;;;;;;5054012;28;20033;-78
2022/12/19 03:45:28;;;;;;;69.38;35.10;;;1.50;97.70;;;;;;5054114;28;20158;-74
2022/12/19 03:47:59;;;;;;;68.93;34.78;;;1.50;97.90;;;;;;5054177;28;20505;-79
2022/12/19 03:50:32;;;;;;;72.13;36.33;;;1.60;98.10;;;;;;5054060;28;20080;-76
2022/12/19 03:53:19;;;;;;;68.90;35.78;;;1.60;98.20;;;;;;5037253;28;20047;-79
2022/12/19 03:55:50;;;;;;;67.72;34.35;;;1.60;98.20;;;;;;5054069;28;20045;-76
2022/12/19 03:58:23;;;;;;;73.50;37.17;;;1.50;98.20;;;;;;5037802;28;20036;-74
2022/12/19 04:00:50;;;;;;;59.67;32.58;;;1.60;98.30;;;;;;5054190;28;20378;-75
2022/12/19 04:03:18;;;;;;;73.95;38.65;;;1.60;98.10;;;;;;5054216;28;20040;-75
2022/12/19 04:05:45;;;;;;;66.70;34.20;;;1.60;98.20;;;;;;5054150;28;20047;-79
2022/12/19 04:08:11;;;;;;;68.70;35.50;;;1.60;98.00;;;;;;5020446;28;20099;-76
2022/12/19 04:10:49;;;;;;;72.55;36.63;;;1.60;98.20;;;;;;5037109;28;20049;-76
2022/12/19 04:13:20;;;;;;;68.75;33.85;;;1.60;98.20;;;;;;5036686;28;20045;-78
2022/12/19 04:15:52;;;;;;;72.90;37.13;;;1.70;98.40;;;;;;5036961;28;20072;-77
2022/12/19 04:18:19;;;;;;;77.57;38.63;;;1.70;98.30;;;;;;5053594;28;20036;-75
2022/12/19 04:21:04;;;;;;;72.13;36.78;;;1.70;98.30;;;;;;5036510;28;20067;-75
2022/12/19 04:23:53;;;;;;;78.22;39.53;;;1.70;98.20;;;;;;5052961;28;20048;-77
2022/12/19 04:26:21;;;;;;;72.00;36.78;;;1.80;98.40;;;;;;5053440;28;20049;-75
2022/12/19 04:28:52;;;;;;;71.78;36.03;;;1.80;98.40;;;;;;5052975;28;20041;-73
2022/12/19 04:31:19;;;;;;;69.35;35.25;;;1.80;98.40;;;;;;5052938;28;20076;-74
2022/12/19 04:33:45;;;;;;;71.30;35.83;;;1.80;98.30;;;;;;5052890;28;20041;-80
2022/12/19 04:36:11;;;;;;;66.70;35.83;;;1.90;98.20;;;;;;5052907;28;20049;-74
2022/12/19 04:38:37;;;;;;;78.80;37.22;;;1.90;98.30;;;;;;5053137;28;20032;-74
2022/12/19 04:41:03;;;;;;;65.03;35.40;;;1.90;98.20;;;;;;5036215;28;20553;-77
2022/12/19 04:43:28;;;;;;;62.30;34.00;;;1.90;98.30;;;;;;5052632;28;20041;-77
2022/12/19 04:45:54;;;;;;;74.50;36.35;;;2.00;98.40;;;;;;5036112;28;20047;-75
2022/12/19 04:48:20;;;;;;;75.50;37.78;;;1.90;98.40;;;;;;5052936;28;20481;-76
2022/12/19 04:50:46;;;;;;;78.82;37.38;;;2.00;98.60;;;;;;5036090;28;20043;-77
2022/12/19 04:53:11;;;;;;;73.78;35.95;;;2.00;98.40;;;;;;5019743;28;20044;-74
2022/12/19 04:55:38;;;;;;;78.80;40.25;;;2.10;98.40;;;;;;5035975;28;20483;-77
2022/12/19 04:58:05;;;;;;;69.18;34.88;;;2.10;98.70;;;;;;5036321;28;20119;-76
2022/12/19 05:00:31;;;;;;;83.03;38.38;;;2.10;98.40;;;;;;5052333;28;20044;-78
2022/12/19 05:02:57;;;;;;;79.07;38.25;;;2.10;98.60;;;;;;5052301;28;20052;-79
2022/12/19 05:05:22;;;;;;;79.95;38.15;;;2.10;98.50;;;;;;5052305;28;20041;-75
2022/12/19 05:07:48;;;;;;;79.05;37.72;;;2.10;98.70;;;;;;5052097;28;20107;-80
2022/12/19 05:10:14;;;;;;;77.28;37.53;;;2.10;98.50;;;;;;5052134;28;20127;-77
2022/12/19 05:12:39;;;;;;;74.68;37.88;;;2.20;98.60;;;;;;5035867;28;20083;-77
2022/12/19 05:15:05;;;;;;;76.10;38.13;;;2.20;98.70;;;;;;5019080;28;20447;-73
2022/12/19 05:17:31;;;;;;;77.05;37.03;;;2.20;98.80;;;;;;5019141;28;20037;-73
2022/12/19 05:19:57;;;;;;;68.82;35.75;;;2.30;98.80;;;;;;5052076;28;20394;-78
2022/12/19 05:22:22;;;;;;;81.75;37.00;;;2.30;98.60;;;;;;5018952;28;20056;-73
2022/12/19 05:24:48;;;;;;;68.03;34.53;;;2.40;98.70;;;;;;5052010;28;20045;-75
2022/12/19 05:27:14;;;;;;;74.85;36.97;;;2.40;98.60;;;;;;5035267;28;20102;-74
2022/12/19 05:29:39;;;;;;;73.65;35.65;;;2.50;98.80;;;;;;5035603;28;20389;-74
2022/12/19 05:32:05;;;;;;;73.75;35.40;;;2.40;98.70;;;;;;5051742;28;20481;-77
2022/12/19 05:34:31;;;;;;;65.88;32.40;;;2.50;98.80;;;;;;5051605;28;20045;-73
2022/12/19 05:36:57;;;;;;;63.40;33.50;;;2.60;99.00;;;;;;5035083;28;20045;-76
2022/12/19 05:39:23;;;;;;;70.63;36.05;;;2.50;98.80;;;;;;5051713;28;20041;-76
2022/12/19 05:41:49;;;;;;;66.22;34.38;;;2.60;98.80;;;;;;5035282;28;20035;-75
2022/12/19 05:44:15;;;;;;;68.32;35.03;;;2.60;98.80;;;;;;5018759;28;20048;-73
2022/12/19 05:46:41;;;;;;;70.47;34.22;;;2.60;98.60;;;;;;5035116;28;20037;-76
2022/12/19 05:49:06;;;;;;;70.45;35.05;;;2.60;98.60;;;;;;5035127;28;20107;-73
2022/12/19 05:51:32;;;;;;;73.65;36.40;;;2.60;98.70;;;;;;5035059;28;20062;-73
2022/12/19 05:53:59;;;;;;;67.97;34.95;;;2.60;98.60;;;;;;5051594;28;20051;-75
2022/12/19 05:56:25;;;;;;;74.07;39.25;;;2.60;98.70;;;;;;5051457;28;20041;-75
2022/12/19 05:58:51;;;;;;;61.72;32.72;;;2.60;98.80;;;;;;5051797;28;20040;-75
2022/12/19 06:01:22;;;;;;;64.80;33.92;;;2.60;98.80;;;;;;5051708;28;20209;-75
2022/12/19 06:03:48;;;;;;;63.60;32.15;;;2.60;98.90;;;;;;5051667;28;20389;-76
2022/12/19 06:06:17;;;;;;;61.28;33.15;;;2.60;98.90;;;;;;5051462;28;20045;-74
2022/12/19 06:08:43;;;;;;;58.88;30.00;;;2.70;99.00;;;;;;5051152;28;20096;-73
2022/12/19 06:11:09;;;;;;;59.53;30.05;;;2.70;99.00;;;;;;5037532;28;20080;-74
2022/12/19 06:13:36;;;;;;;55.60;28.75;;;2.80;98.90;;;;;;5051643;28;20041;-74
2022/12/19 06:16:22;;;;;;;51.53;27.63;;;2.80;99.00;;;;;;5059553;28;20066;-73
2022/12/19 06:18:48;;;;;;;45.58;23.55;;;2.90;99.00;;;;;;5062017;28;20060;-74
2022/12/19 06:21:23;;;;;;;37.95;23.17;;;2.90;99.20;;;;;;5062098;28;20137;-73
2022/12/19 06:23:49;;;;;;;60.60;28.92;;;3.00;98.80;;;;;;5061817;28;20142;-73
2022/12/19 06:26:18;;;;;;;43.67;25.00;;;3.00;99.00;;;;;;5035934;28;20090;-74
2022/12/19 06:28:43;;;;;;;52.47;27.70;;;3.10;98.90;;;;;;5055098;28;20049;-73
2022/12/19 06:31:11;;;;;;;50.58;26.25;;;3.00;98.90;;;;;;5034919;28;20485;-71
2022/12/19 06:33:36;;;;;;;42.58;24.55;;;3.00;99.00;;;;;;5051189;28;20045;-74
2022/12/19 06:36:04;;;;;;;40.42;22.08;;;3.10;99.10;;;;;;5051076;28;20129;-73
2022/12/19 06:38:30;;;;;;;48.20;24.88;;;3.10;99.10;;;;;;5051172;28;20041;-75
2022/12/19 06:44:03;;;;;;;47.78;24.05;;;3.20;99.00;;;;;;5033511;28;20128;-74
2022/12/19 06:46:29;;;;;;;32.63;18.75;;;3.20;99.10;;;;;;5034965;28;20576;-73
2022/12/19 06:48:55;;;;;;;42.85;22.77;;;3.30;99.30;;;;;;5027621;28;20055;-72
2022/12/19 06:51:20;;;;;;;37.40;20.90;;;3.30;99.30;;;;;;5038158;28;20044;-74
2022/12/19 06:53:46;;;;;;;38.75;22.13;;;3.30;99.30;;;;;;5054848;28;20048;-73
2022/12/19 06:56:13;;;;;;;37.50;20.48;;;3.40;99.20;;;;;;5054801;28;20039;-75
2022/12/19 06:58:40;;;;;;;35.30;21.70;;;3.40;99.30;;;;;;5054956;28;20048;-74
2022/12/19 07:01:05;;;;;;;39.78;22.05;;;3.50;99.30;;;;;;5054810;28;20041;-74
2022/12/19 07:03:39;;;;;;;41.15;23.08;;;3.50;99.20;;;;;;5054521;28;20404;-72
2022/12/19 07:06:05;;;;;;;48.85;26.23;;;3.50;99.30;;;;;;5054629;28;20162;-74
2022/12/19 07:08:31;;;;;;;36.95;21.10;;;3.50;99.20;;;;;;5037551;28;20060;-75
2022/12/19 07:10:58;;;;;;;39.35;20.63;;;3.50;98.90;;;;;;5054502;28;20102;-76
2022/12/19 07:13:23;;;;;;;34.35;21.05;;;3.60;99.10;;;;;;5054722;28;20041;-75
2022/12/19 07:15:51;;;;;;;41.40;21.67;;;3.70;99.00;;;;;;5054202;28;20561;-75
2022/12/19 07:18:17;;;;;;;39.63;22.63;;;3.70;98.90;;;;;;5054423;28;20033;-74
2022/12/19 07:20:43;;;;;;;38.42;21.35;;;3.70;99.00;;;;;;5054744;28;20506;-76
2022/12/19 07:23:13;;;;;;;32.05;19.27;;;3.70;99.30;;;;;;5037535;28;20102;-76
2022/12/19 07:25:38;;;;;;;33.88;19.33;;;3.90;99.20;;;;;;5054443;28;20501;-73
2022/12/19 07:28:05;;;;;;;37.17;20.65;;;4.10;99.40;;;;;;5054360;28;20045;-74
2022/12/19 07:30:31;;;;;;;37.80;20.38;;;4.10;99.40;;;;;;5054089;28;20041;-73
2022/12/19 07:32:57;;;;;;;34.80;20.30;;;4.10;99.40;;;;;;5053988;28;20127;-73
2022/12/19 07:35:23;;;;;;;31.58;19.38;;;4.10;99.40;;;;;;5053933;28;20049;-74
2022/12/19 07:37:49;;;;;;;26.85;17.67;;;4.10;99.50;;;;;;5054275;28;20049;-75
2022/12/19 07:40:16;;;;;;;32.20;19.27;;;4.10;99.60;;;;;;5037590;28;20036;-73
2022/12/19 07:42:42;;;;;;;28.52;17.55;;;4.30;99.70;;;;;;5037398;28;20042;-74
2022/12/19 07:45:08;;;;;;;25.02;16.92;;;4.20;99.40;;;;;;5053877;28;20056;-74
2022/12/19 07:47:34;;;;;;;24.23;16.75;;;4.30;99.30;;;;;;5054082;28;20049;-76
2022/12/19 07:50:00;;;;;;;29.88;17.73;;;4.40;99.30;;;;;;5037184;28;20374;-73
2022/12/19 07:52:26;;;;;;;27.52;17.00;;;4.50;99.40;;;;;;5053790;28;20047;-71
2022/12/19 07:54:52;;;;;;;24.55;17.45;;;4.60;99.50;;;;;;5064096;28;20523;-73
2022/12/19 07:57:18;;;;;;;27.25;16.08;;;4.70;99.80;;;;;;5048217;28;20040;-73
2022/12/19 07:59:43;;;;;;;27.80;17.30;;;4.70;99.70;;;;;;5057270;28;20052;-73
2022/12/19 08:02:09;;;;;;;30.05;17.30;;;4.70;99.60;;;;;;5056802;28;20496;-74
2022/12/19 08:04:35;;;;;;;26.10;17.63;;;4.80;99.70;;;;;;5063285;28;20040;-72
2022/12/19 08:07:03;;;;;;;26.05;17.98;;;4.80;99.70;;;;;;5063362;28;20072;-72
2022/12/19 08:09:29;;;;;;;25.73;17.48;;;4.90;99.70;;;;;;5061866;28;20079;-75
2022/12/19 08:11:56;;;;;;;24.60;16.70;;;4.90;99.70;;;;;;5073144;28;20048;-75
2022/12/19 08:14:22;;;;;;;27.13;16.58;;;4.90;99.60;;;;;;5073295;28;20059;-74
2022/12/19 08:16:47;;;;;;;26.20;17.50;;;4.90;99.70;;;;;;5072968;28;20520;-74
2022/12/19 08:19:13;;;;;;;25.52;16.63;;;5.00;99.60;;;;;;5056176;28;20374;-75
2022/12/19 08:21:39;;;;;;;24.25;16.98;;;5.10;99.70;;;;;;5072309;28;20205;-74
2022/12/19 08:24:05;;;;;;;25.38;17.13;;;5.10;99.50;;;;;;5072725;28;20049;-73
2022/12/19 08:26:30;;;;;;;23.83;16.77;;;5.10;99.50;;;;;;5073053;28;20131;-74
2022/12/19 08:28:57;;;;;;;24.17;16.83;;;5.10;99.60;;;;;;5056337;28;20046;-72
2022/12/19 08:31:25;;;;;;;25.48;16.83;;;5.20;99.60;;;;;;5056277;28;20090;-75
2022/12/19 08:33:52;;;;;;;22.92;16.20;;;5.20;99.50;;;;;;5072716;28;20036;-71
2022/12/19 08:36:19;;;;;;;23.20;16.42;;;5.20;99.80;;;;;;5039721;28;20036;-73
2022/12/19 08:38:45;;;;;;;28.55;18.10;;;5.30;99.80;;;;;;5056080;28;20083;-73
2022/12/19 08:41:12;;;;;;;26.35;17.90;;;5.30;99.90;;;;;;5055918;28;20036;-72
2022/12/19 08:43:38;;;;;;;26.38;17.83;;;5.30;99.80;;;;;;5055890;28;20044;-71
2022/12/19 08:46:04;;;;;;;25.75;17.98;;;5.30;99.60;;;;;;5072613;28;20037;-76
2022/12/19 08:48:34;;;;;;;22.30;16.48;;;5.40;99.70;;;;;;5055505;28;20153;-72
2022/12/19 08:51:03;;;;;;;25.27;17.77;;;5.40;99.50;;;;;;5055558;28;20041;-72
2022/12/19 08:53:32;;;;;;;23.13;16.60;;;5.50;99.80;;;;;;5069604;28;20084;-76
2022/12/19 08:56:07;;;;;;;28.30;19.23;;;5.50;99.90;;;;;;5070399;28;20048;-75
2022/12/19 08:58:33;;;;;;;;;;;5.60;99.70;;;;;;5071199;28;20068;-75
2022/12/19 09:01:01;;;;;;;27.15;18.58;;;5.60;99.60;;;;;;5070758;28;19974;-72
2022/12/19 09:03:27;;;;;;;27.27;19.55;;;5.60;99.50;;;;;;5053571;28;20064;-72
2022/12/19 09:06:02;;;;;;;27.83;19.55;;;5.60;99.60;;;;;;5070720;28;20041;-74
2022/12/19 09:08:29;;;;;;;26.75;20.25;;;5.70;99.50;;;;;;5068365;28;20068;-74
2022/12/19 09:11:10;;;;;;;25.52;19.08;;;5.80;99.60;;;;;;5070091;28;20040;-76
2022/12/19 09:13:37;;;;;;;26.90;20.77;;;5.90;99.60;;;;;;5070301;28;20123;-75
2022/12/19 09:16:16;;;;;;;28.15;20.35;;;5.90;99.60;;;;;;5069847;28;20037;-75
2022/12/19 09:18:48;;;;;;;27.92;20.33;;;5.80;99.70;;;;;;5069864;28;20456;-73
2022/12/19 09:21:14;;;;;;;29.25;20.83;;;5.90;99.70;;;;;;5070716;28;20040;-75
2022/12/19 09:23:41;;;;;;;29.23;20.65;;;5.90;99.70;;;;;;5069973;28;20032;-74
2022/12/19 09:26:11;;;;;;;27.85;21.00;;;6.00;99.70;;;;;;5065222;28;20052;-73
2022/12/19 09:28:38;;;;;;;26.88;19.77;;;6.00;99.70;;;;;;5053475;28;20036;-75
2022/12/19 09:31:16;;;;;;;29.13;20.50;;;6.00;99.70;;;;;;5070535;28;20419;-74
2022/12/19 09:33:42;;;;;;;26.80;20.35;;;6.10;99.70;;;;;;5069860;28;20076;-72
2022/12/19 09:36:11;;;;;;;29.58;21.65;;;6.00;99.70;;;;;;5052502;28;20044;-74
2022/12/19 09:38:37;;;;;;;30.17;21.25;;;6.10;99.70;;;;;;5069770;28;20562;-73
2022/12/19 09:41:47;;;;;;;28.92;21.38;;;6.10;99.70;;;;;;5053617;28;20044;-73
2022/12/19 09:44:37;;;;;;;27.30;20.00;;;6.30;99.60;;;;;;5069003;28;20044;-72
2022/12/19 09:47:12;;;;;;;26.23;20.15;;;6.40;99.70;;;;;;5068872;28;20040;-74
2022/12/19 09:49:43;;;;;;;26.80;19.98;;;6.30;99.60;;;;;;5053302;28;20119;-75
2022/12/19 09:52:30;;;;;;;27.42;20.58;;;6.40;99.60;;;;;;5068962;28;20043;-75
2022/12/19 09:55:15;;;;;;;26.48;19.85;;;6.50;99.70;;;;;;5069805;28;20040;-75
2022/12/19 09:57:56;;;;;;;26.80;19.45;;;6.60;99.60;;;;;;5067249;28;20385;-76
2022/12/19 10:00:22;;;;;;;23.38;17.58;;;6.60;99.60;;;;;;5053172;28;20037;-74
2022/12/19 10:03:09;;;;;;;25.45;18.20;;;6.70;99.60;;;;;;5053168;28;20443;-73
2022/12/19 10:05:46;;;;;;;26.85;19.02;;;6.80;99.50;;;;;;5070030;28;20393;-76
2022/12/19 10:08:18;;;;;;;23.60;18.08;;;6.80;99.40;;;;;;5068566;28;20063;-74
2022/12/19 10:11:02;;;;;;;24.02;18.27;;;6.90;99.40;;;;;;5069812;28;20508;-73
2022/12/19 10:13:40;;;;;;;24.02;17.95;;;6.90;99.50;;;;;;5066707;28;20044;-76
2022/12/19 10:16:29;;;;;;;22.65;16.48;;;7.00;99.50;;;;;;5069224;28;20127;-75
2022/12/19 10:18:59;;;;;;;22.33;16.83;;;7.00;99.40;;;;;;5046994;28;20056;-75
2022/12/19 10:21:37;;;;;;;28.10;16.35;;;7.10;99.40;;;;;;5072643;28;20041;-75
2022/12/19 10:24:29;;;;;;;19.05;14.52;;;7.10;99.30;;;;;;5073924;28;20463;-74
2022/12/19 10:27:01;;;;;;;20.70;15.82;;;7.10;99.30;;;;;;5072039;28;20127;-75
2022/12/19 10:30:09;;;;;;;26.63;19.30;;;7.10;99.10;;;;;;5074022;28;20135;-74
2022/12/19 10:32:47;;;;;;;20.67;15.27;;;7.10;99.00;;;;;;5056940;28;20412;-75
2022/12/19 10:35:16;;;;;;;20.13;14.48;;;7.10;99.00;;;;;;5073870;28;20370;-76
2022/12/19 10:38:10;;;;;;;19.35;14.65;;;7.10;99.00;;;;;;5072223;28;20115;-76
2022/12/19 10:40:48;;;;;;;18.77;13.13;;;7.10;99.00;;;;;;5073561;28;20055;-76
2022/12/19 10:43:39;;;;;;;18.05;14.05;;;7.10;99.00;;;;;;5056522;28;20283;-73
2022/12/19 10:46:22;;;;;;;20.95;14.13;;;7.20;98.90;;;;;;5068009;28;20089;-76
2022/12/19 10:48:51;;;;;;;17.80;14.73;;;7.20;98.80;;;;;;5069759;28;20392;-78
2022/12/19 10:51:27;;;;;;;18.48;14.90;;;7.20;98.80;;;;;;5073206;28;20121;-77
2022/12/19 10:53:57;;;;;;;17.83;13.23;;;7.20;98.80;;;;;;5073078;28;20044;-76
2022/12/19 10:56:30;;;;;;;21.60;18.77;;;7.30;98.70;;;;;;5055458;28;20434;-77
2022/12/19 10:58:57;;;;;;;23.90;19.52;;;7.30;98.60;;;;;;5073080;28;20109;-78
2022/12/19 11:01:29;;;;;;;17.60;14.63;;;7.30;98.60;;;;;;5073227;28;20040;-77
2022/12/19 11:04:29;;;;;;;18.75;14.98;;;7.20;98.60;;;;;;5072980;28;20040;-79
2022/12/19 11:07:05;;;;;;;19.00;15.57;;;7.30;98.60;;;;;;5071839;28;20098;-77
2022/12/19 11:09:42;;;;;;;19.98;15.68;;;7.30;98.60;;;;;;5072657;28;20501;-79
2022/12/19 11:12:10;;;;;;;23.63;18.42;;;7.30;98.60;;;;;;5069903;28;20443;-79
2022/12/19 11:14:38;;;;;;;32.25;26.80;;;7.30;98.50;;;;;;5072147;28;20041;-76
2022/12/19 11:17:05;;;;;;;24.60;18.63;;;7.30;98.50;;;;;;5050971;28;20036;-77
2022/12/19 11:19:38;;;;;;;26.67;18.27;;;7.30;98.60;;;;;;5056003;28;20044;-78
2022/12/19 11:22:13;;;;;;;23.52;17.80;;;7.30;98.50;;;;;;5073313;28;20385;-78
2022/12/19 11:24:45;;;;;;;20.45;15.57;;;7.30;98.50;;;;;;5055702;28;20044;-75
2022/12/19 11:27:31;;;;;;;20.55;15.15;;;7.30;98.60;;;;;;5071502;28;20045;-75
2022/12/19 11:29:59;;;;;;;15.57;11.73;;;7.40;98.50;;;;;;5072235;28;20046;-76
2022/12/19 11:32:30;;;;;;;18.08;15.07;;;7.40;98.60;;;;;;5037099;28;20441;-79
2022/12/19 11:35:13;;;;;;;16.88;14.07;;;7.40;98.50;;;;;;5072340;28;20084;-75
2022/12/19 11:37:50;;;;;;;16.45;12.70;;;7.40;98.60;;;;;;5054189;28;21052;-77
2022/12/19 11:40:27;;;;;;;20.08;13.35;;;7.40;98.60;;;;;;5072336;28;20132;-78
2022/12/19 11:43:07;;;;;;;17.67;13.10;;;7.40;98.50;;;;;;5072004;28;20037;-75
2022/12/19 11:46:18;;;;;;;15.73;12.10;;;7.40;98.60;;;;;;5072762;28;20913;-75
2022/12/19 11:48:48;;;;;;;16.80;12.63;;;7.40;98.60;;;;;;5052573;28;20055;-77
2022/12/19 11:51:24;;;;;;;17.58;12.30;;;7.40;98.60;;;;;;5055745;28;20058;-76
2022/12/19 11:53:57;;;;;;;19.25;14.82;;;7.50;98.60;;;;;;5072118;28;20052;-74
2022/12/19 11:56:24;;;;;;;21.10;17.42;;;7.50;98.50;;;;;;5070927;28;20055;-76
2022/12/19 11:58:58;;;;;;;16.77;13.85;;;7.50;98.30;;;;;;5071487;28;20548;-78
2022/12/19 12:01:46;;;;;;;17.50;14.25;;;7.50;98.20;;;;;;5068585;28;20090;-75
2022/12/19 12:04:39;;;;;;;19.63;15.38;;;7.50;98.30;;;;;;5071581;28;20041;-77
2022/12/19 12:07:05;;;;;;;17.60;14.35;;;7.50;98.30;;;;;;5070525;28;20074;-76
2022/12/19 12:09:50;;;;;;;15.15;12.15;;;7.50;98.30;;;;;;5051355;28;20080;-75
2022/12/19 12:12:31;;;;;;;16.40;12.52;;;7.40;98.30;;;;;;5072012;28;20041;-76
2022/12/19 12:15:12;;;;;;;15.15;11.05;;;7.50;98.30;;;;;;5071424;28;20047;-78
2022/12/19 12:18:13;;;;;;;21.55;11.50;;;7.50;98.30;;;;;;5053848;28;20377;-77
2022/12/19 12:20:59;;;;;;;19.17;13.02;;;7.50;98.20;;;;;;5065418;28;20378;-75
2022/12/19 12:23:29;;;;;;;13.85;10.18;;;7.60;98.20;;;;;;5055659;28;20119;-75
2022/12/19 12:26:09;;;;;;;12.43;9.73;;;7.60;98.20;;;;;;5073404;28;20076;-76
2022/12/19 12:28:57;;;;;;;20.10;13.48;;;7.60;98.10;;;;;;5073303;28;20041;-75
2022/12/19 12:31:54;;;;;;;25.48;16.48;;;7.60;98.10;;;;;;5072966;28;20090;-74
2022/12/19 12:34:43;;;;;;;16.00;11.10;;;7.60;98.10;;;;;;5072816;28;20041;-76
2022/12/19 12:37:30;;;;;;;10.80;8.55;;;7.60;97.90;;;;;;5069595;28;20057;-76
2022/12/19 12:40:23;;;;;;;10.77;8.88;;;7.60;98.00;;;;;;5056058;28;20105;-75
2022/12/19 12:43:16;;;;;;;11.88;9.60;;;7.70;97.90;;;;;;5072581;28;20040;-75
2022/12/19 12:45:46;;;;;;;12.77;9.30;;;7.70;97.80;;;;;;5072714;28;20119;-76
2022/12/19 12:48:41;;;;;;;9.38;8.27;;;7.70;97.80;;;;;;5072568;28;20076;-75
2022/12/19 12:51:08;;;;;;;13.05;9.55;;;7.70;97.80;;;;;;5055901;28;20044;-76
2022/12/19 12:53:41;;;;;;;11.30;9.00;;;7.60;97.60;;;;;;5072477;28;20429;-74
2022/12/19 12:56:11;;;;;;;18.58;10.27;;;7.70;97.80;;;;;;5072563;28;20086;-75
2022/12/19 12:58:45;;;;;;;12.90;9.52;;;7.60;97.80;;;;;;5055864;28;20041;-76
2022/12/19 13:01:28;;;;;;;13.18;10.65;;;7.60;97.90;;;;;;5072205;28;20039;-76
2022/12/19 13:04:10;;;;;;;14.30;8.68;;;7.60;98.00;;;;;;5055571;28;20037;-77
2022/12/19 13:06:48;;;;;;;13.98;10.07;;;7.60;98.20;;;;;;5072584;28;20094;-75
2022/12/19 13:09:24;;;;;;;13.25;9.48;;;7.70;98.00;;;;;;5055492;28;20091;-75